createdAt,value
2022-10-05T06:05:47.709Z,101721.69
2022-10-05T06:08:59.663Z,101735.44
2022-10-05T06:12:14.840Z,101745.59
2022-10-05T06:20:27.811Z,101758.69
2022-10-05T06:24:09.223Z,101784.59
2022-10-05T06:27:35.665Z,101781.78
2022-10-05T06:30:55.265Z,101788.69
2022-10-05T06:34:17.925Z,101794.28
2022-10-05T06:37:43.758Z,101806.56
2022-10-05T06:41:12.840Z,101814.25
2022-10-05T06:44:48.850Z,101805.38
2022-10-05T06:48:40.648Z,101816.56
2022-10-05T06:52:09.303Z,101807.47
2022-10-05T06:55:34.849Z,101817.50
2022-10-05T06:59:00.498Z,101822.00
2022-10-05T07:02:29.081Z,101812.13
2022-10-05T07:05:45.850Z,101818.97
2022-10-05T07:09:19.933Z,101816.69
2022-10-05T07:12:57.870Z,101818.47
2022-10-05T07:16:32.911Z,101810.91
2022-10-05T07:19:41.210Z,101831.47
2022-10-05T07:23:17.045Z,101837.56
2022-10-05T07:26:34.656Z,101822.44
2022-10-05T07:30:02.977Z,101827.41
2022-10-05T07:33:34.243Z,101830.09
2022-10-05T07:37:06.752Z,101807.78
2022-10-05T07:40:26.472Z,101820.44
2022-10-05T07:44:20.108Z,101816.69
2022-10-05T07:47:38.739Z,101828.94
2022-10-05T07:51:05.899Z,101838.59
2022-10-05T07:54:28.315Z,101831.78
2022-10-05T07:57:50.444Z,101834.44
2022-10-05T08:01:21.975Z,101825.53
2022-10-05T08:04:42.368Z,101829.78
2022-10-05T08:07:59.312Z,101835.31
2022-10-05T08:11:14.686Z,101830.78
2022-10-05T08:14:33.830Z,101832.09
2022-10-05T08:17:46.089Z,101832.94
2022-10-05T08:20:57.616Z,101832.41
2022-10-05T08:24:11.403Z,101832.84
2022-10-05T08:27:46.965Z,101836.53
2022-10-05T08:31:19.226Z,101825.00
2022-10-05T08:34:40.456Z,101815.72
2022-10-05T08:37:44.872Z,101808.56
2022-10-05T08:45:26.968Z,101796.16
2022-10-05T08:48:46.028Z,101779.69
2022-10-05T08:52:12.694Z,101788.69
2022-10-05T08:55:28.891Z,101769.63
2022-10-05T08:58:49.539Z,101781.41
2022-10-05T09:02:19.774Z,101775.59
2022-10-05T09:05:52.165Z,101757.94
2022-10-05T09:09:20.832Z,101774.34
2022-10-05T09:12:33.048Z,101779.19
2022-10-05T09:16:01.712Z,101787.59
2022-10-05T09:19:34.750Z,101787.72
2022-10-05T09:22:58.621Z,101796.31
2022-10-05T09:26:47.768Z,101799.47
2022-10-05T09:30:16.969Z,101799.69
2022-10-05T09:33:49.598Z,101806.09
2022-10-05T09:37:26.615Z,101809.59
2022-10-05T09:41:08.540Z,101812.41
2022-10-05T09:44:20.945Z,101809.75
2022-10-05T09:48:00.003Z,101811.47
2022-10-05T09:51:50.315Z,101807.50
2022-10-05T09:55:31.008Z,101813.97
2022-10-05T09:59:08.907Z,101810.88
2022-10-05T10:02:32.235Z,101810.13
2022-10-05T10:06:03.882Z,101798.63
2022-10-05T10:09:21.182Z,101796.50
2022-10-05T10:12:30.198Z,101794.47
2022-10-05T10:15:38.460Z,101793.44
2022-10-05T10:19:01.078Z,101792.44
2022-10-05T10:22:17.748Z,101793.88
2022-10-05T10:26:01.806Z,101802.56
2022-10-05T10:29:32.001Z,101795.94
2022-10-05T10:33:02.263Z,101787.94
2022-10-05T10:36:17.062Z,101790.44
2022-10-05T10:39:38.909Z,101796.56
2022-10-05T10:42:41.833Z,101780.38
2022-10-05T10:46:24.178Z,101781.00
2022-10-05T10:49:57.775Z,101785.78
2022-10-05T10:53:28.011Z,101782.09
2022-10-05T10:57:10.772Z,101779.59
2022-10-05T11:00:55.724Z,101793.63
2022-10-05T11:04:13.934Z,101800.34
2022-10-05T11:07:45.012Z,101785.97
2022-10-05T11:11:03.554Z,101780.62
2022-10-05T11:14:44.267Z,101774.53
2022-10-05T11:18:10.070Z,101766.50
2022-10-05T11:21:30.743Z,101760.03
2022-10-05T11:24:39.034Z,101755.59
2022-10-05T11:28:18.975Z,101761.00
2022-10-05T11:31:40.706Z,101754.34
2022-10-05T11:35:04.858Z,101756.38
2022-10-05T11:38:18.157Z,101752.16
2022-10-05T11:41:33.043Z,101748.19
2022-10-05T11:45:01.984Z,101742.19
2022-10-05T11:48:29.375Z,101735.63
2022-10-05T11:51:41.890Z,101734.97
2022-10-05T11:55:16.655Z,101722.56
2022-10-05T11:58:38.980Z,101716.00
2022-10-05T12:02:01.859Z,101724.34
2022-10-05T12:05:29.254Z,101725.91
2022-10-05T12:08:45.980Z,101726.22
2022-10-05T12:12:10.952Z,101725.00
2022-10-05T12:15:31.927Z,101717.38
2022-10-05T12:18:39.855Z,101707.81
2022-10-05T12:22:04.452Z,101705.28
2022-10-05T12:25:27.813Z,101706.12
2022-10-05T12:28:53.899Z,101703.16
2022-10-05T12:32:13.765Z,101703.03
2022-10-05T12:35:49.653Z,101701.25
2022-10-05T12:38:56.275Z,101702.38
2022-10-05T12:42:22.034Z,101692.38
2022-10-05T12:45:54.876Z,101703.84
2022-10-05T12:49:34.173Z,101692.53
2022-10-05T12:52:50.454Z,101710.06
2022-10-05T12:56:04.726Z,101692.22
2022-10-05T12:59:30.977Z,101685.28
2022-10-05T13:02:45.712Z,101690.63
2022-10-05T13:06:08.357Z,101697.63
2022-10-05T13:09:29.911Z,101682.62
2022-10-05T13:12:59.921Z,101672.72
2022-10-05T13:16:17.244Z,101672.03
2022-10-05T13:19:34.905Z,101663.41
2022-10-05T13:22:48.817Z,101673.59
2022-10-05T13:26:13.016Z,101669.28
2022-10-05T13:29:40.515Z,101673.34
2022-10-05T13:33:00.964Z,101675.59
2022-10-05T13:36:43.004Z,101675.31
2022-10-05T13:40:16.681Z,101670.78
2022-10-05T13:47:36.292Z,101654.88
2022-10-05T13:51:31.812Z,101651.63
2022-10-05T13:55:27.198Z,101641.00
2022-10-05T13:59:03.602Z,101650.78
2022-10-05T14:02:34.781Z,101656.97
2022-10-05T14:05:59.173Z,101646.28
2022-10-05T14:09:33.803Z,101649.53
2022-10-05T14:12:43.750Z,101653.84
2022-10-05T14:16:12.721Z,101660.00
2022-10-05T14:19:34.147Z,101654.59
2022-10-05T14:23:24.863Z,101651.91
2022-10-05T14:26:35.573Z,101658.94
2022-10-05T14:30:03.867Z,101653.44
2022-10-05T14:33:18.952Z,101649.78
2022-10-05T14:36:44.794Z,101662.97
2022-10-05T14:40:03.353Z,101663.78
2022-10-05T14:43:17.979Z,101657.59
2022-10-05T14:46:29.336Z,101656.59
2022-10-05T14:50:11.805Z,101649.44
2022-10-05T14:53:25.889Z,101649.41
2022-10-05T14:56:56.591Z,101638.66
2022-10-05T15:00:19.993Z,101657.03
2022-10-05T15:03:42.232Z,101665.69
2022-10-05T15:06:58.459Z,101660.22
2022-10-05T15:10:33.698Z,101670.41
2022-10-05T15:13:49.740Z,101666.63
2022-10-05T15:17:04.896Z,101665.66
2022-10-05T15:20:27.810Z,101658.41
2022-10-05T15:23:51.978Z,101646.69
2022-10-05T15:27:34.868Z,101644.75
2022-10-05T15:31:07.217Z,101641.78
2022-10-05T15:34:38.391Z,101630.78
2022-10-05T15:38:05.799Z,101627.91
2022-10-05T15:41:25.201Z,101629.28
2022-10-05T15:45:33.119Z,101626.56
2022-10-05T15:49:23.242Z,101633.41
2022-10-05T15:52:44.932Z,101624.88
2022-10-05T15:55:52.896Z,101631.06
2022-10-05T15:59:18.806Z,101621.44
2022-10-05T16:02:30.015Z,101623.94
2022-10-05T16:10:43.157Z,101630.09
2022-10-05T16:14:31.774Z,101635.56
2022-10-05T16:17:54.899Z,101626.06
2022-10-05T16:21:33.655Z,101633.63
2022-10-05T16:25:58.748Z,101636.25
2022-10-05T16:29:55.604Z,101634.53
2022-10-05T16:33:18.037Z,101641.41
2022-10-05T16:37:07.056Z,101646.00
2022-10-05T16:45:44.797Z,101659.25
2022-10-05T16:53:30.642Z,101673.97
2022-10-05T16:57:07.987Z,101671.84
2022-10-05T17:00:26.127Z,101682.72
2022-10-05T17:04:13.157Z,101676.97
2022-10-05T17:07:53.108Z,101673.00
2022-10-05T17:11:41.904Z,101670.63
2022-10-05T17:15:32.368Z,101676.34
2022-10-05T17:19:01.027Z,101689.25
2022-10-05T17:22:40.348Z,101696.28
2022-10-05T17:25:57.873Z,101701.41
2022-10-05T17:29:30.021Z,101702.94
2022-10-05T17:33:13.706Z,101695.72
2022-10-05T17:36:22.835Z,101698.00
2022-10-05T17:39:59.820Z,101699.53
2022-10-05T17:44:21.990Z,101701.97
2022-10-05T17:48:19.221Z,101690.94
2022-10-05T17:52:16.705Z,101713.69
2022-10-05T17:55:53.653Z,101716.13
2022-10-05T17:59:18.799Z,101710.50
2022-10-05T18:02:58.486Z,101710.66
2022-10-05T18:06:25.160Z,101710.34
2022-10-05T18:10:30.030Z,101710.91
2022-10-05T18:13:56.019Z,101709.09
2022-10-05T18:17:45.592Z,101715.37
2022-10-05T18:21:15.827Z,101710.56
2022-10-05T18:24:55.949Z,101709.91
2022-10-05T18:28:18.856Z,101684.22
2022-10-05T18:31:34.394Z,101703.84
2022-10-05T18:35:03.247Z,101709.91
2022-10-05T18:38:53.938Z,101694.69
2022-10-05T18:42:29.124Z,101701.03
2022-10-05T18:46:13.091Z,101708.94
2022-10-05T18:50:25.691Z,101709.56
2022-10-05T18:53:58.884Z,101698.06
2022-10-05T18:57:32.698Z,101700.53
2022-10-05T19:01:12.388Z,101701.28
2022-10-05T19:04:53.236Z,101698.37
2022-10-05T19:13:16.772Z,101709.41
2022-10-05T19:16:31.793Z,101706.22
2022-10-05T19:19:44.753Z,101707.19
2022-10-05T19:22:48.544Z,101710.69
2022-10-05T19:26:15.950Z,101711.81
2022-10-05T19:29:47.710Z,101710.84
2022-10-05T19:33:24.257Z,101717.72
2022-10-05T19:36:56.726Z,101704.97
2022-10-05T19:40:27.599Z,101721.53
2022-10-05T19:44:06.968Z,101708.16
2022-10-05T19:47:37.543Z,101719.44
2022-10-05T19:50:59.999Z,101727.22
2022-10-05T19:54:21.894Z,101720.63
2022-10-05T19:57:35.115Z,101726.31
2022-10-05T20:00:47.226Z,101728.03
2022-10-05T20:03:58.132Z,101727.06
2022-10-05T20:07:02.523Z,101730.72
2022-10-05T20:10:30.832Z,101740.94
2022-10-05T20:13:36.777Z,101737.34
2022-10-05T20:18:09.061Z,101736.19
2022-10-05T20:22:00.107Z,101750.59
2022-10-05T20:25:14.251Z,101738.25
2022-10-05T20:28:33.725Z,101754.69
2022-10-05T20:31:37.266Z,101755.72
2022-10-05T20:34:42.929Z,101746.59
2022-10-05T20:38:11.660Z,101757.94
2022-10-05T20:41:16.634Z,101755.84
2022-10-05T20:44:21.033Z,101754.78
2022-10-05T20:47:28.196Z,101757.56
2022-10-05T20:51:08.791Z,101763.59
2022-10-05T20:54:11.936Z,101761.72
2022-10-05T20:57:27.912Z,101751.78
2022-10-05T21:00:54.922Z,101758.56
2022-10-05T21:03:59.685Z,101751.78
2022-10-05T21:07:07.144Z,101755.19
2022-10-05T21:10:11.741Z,101759.06
2022-10-05T21:13:18.579Z,101760.56
2022-10-05T21:16:25.040Z,101758.87
2022-10-05T21:19:29.538Z,101751.78
2022-10-05T21:22:32.888Z,101759.44
2022-10-05T21:25:37.155Z,101755.03
2022-10-05T21:28:41.813Z,101759.09
2022-10-05T21:31:45.935Z,101763.19
2022-10-05T21:34:53.191Z,101770.72
2022-10-05T21:37:58.018Z,101765.44
2022-10-05T21:41:05.236Z,101759.16
2022-10-05T21:44:32.128Z,101764.19
2022-10-05T21:47:35.225Z,101757.84
2022-10-05T21:50:39.924Z,101757.84
2022-10-05T21:53:49.815Z,101762.97
2022-10-05T21:56:55.804Z,101750.91
2022-10-05T22:00:06.653Z,101752.19
2022-10-05T22:03:10.237Z,101760.75
2022-10-05T22:06:13.627Z,101758.87
2022-10-05T22:09:18.898Z,101745.97
2022-10-05T22:12:24.474Z,101759.09
2022-10-05T22:15:31.380Z,101760.81
2022-10-05T22:18:35.343Z,101748.13
2022-10-05T22:21:41.911Z,101749.81
2022-10-05T22:24:44.881Z,101754.94
2022-10-05T22:27:49.937Z,101740.97
2022-10-05T22:30:53.352Z,101753.38
2022-10-05T22:33:56.470Z,101746.00
2022-10-05T22:37:03.213Z,101750.97
2022-10-05T22:40:13.173Z,101747.94
2022-10-05T22:43:20.047Z,101738.41
2022-10-05T22:46:23.502Z,101746.31
2022-10-05T22:49:26.881Z,101736.34
2022-10-05T22:52:29.632Z,101730.34
2022-10-05T22:55:34.176Z,101739.06
2022-10-05T22:58:37.732Z,101731.78
2022-10-05T23:01:40.845Z,101732.78
2022-10-05T23:04:43.476Z,101737.25
2022-10-05T23:07:47.216Z,101731.31
2022-10-05T23:10:52.623Z,101730.69
2022-10-05T23:13:57.021Z,101734.13
2022-10-05T23:17:00.054Z,101732.22
2022-10-05T23:20:05.837Z,101729.97
2022-10-05T23:23:08.703Z,101729.16
2022-10-05T23:26:12.368Z,101723.78
2022-10-05T23:29:15.575Z,101725.66
2022-10-05T23:32:18.859Z,101718.66
2022-10-05T23:35:22.065Z,101700.72
2022-10-05T23:38:26.801Z,101715.53
2022-10-05T23:41:34.641Z,101717.22
